This is the latest recevied weather packets stored in our database for station/object SP8PUB-10. If no packets are shown the sender has not sent any weather packets the latest 10 day(s).
| Time | Temp. | Humidity | Pressure | Rain* | Wind** | Luminosity | Snow |
|---|---|---|---|---|---|---|---|
| 1777957089 | 24.44° C | 44% | 1013.7 hPa | - | - | - | - |
| 1777956189 | 23.33° C | 46% | 1013.7 hPa | - | - | - | - |
| 1777955289 | 20.56° C | 49% | 1013.7 hPa | - | - | - | - |
| 1777954389 | 18.89° C | 52% | 1013.5 hPa | - | - | - | - |
| 1777953488 | 16.11° C | 55% | 1013.5 hPa | - | - | - | - |
| 1777952588 | 12.78° C | 63% | 1013.5 hPa | - | - | - | - |
| 1777951688 | 12.22° C | 63% | 1013.5 hPa | - | - | - | - |
| 1777950788 | 12.22° C | 60% | 1013.5 hPa | - | - | - | - |
| 1777949888 | 13.33° C | 57% | 1013.5 hPa | - | - | - | - |
| 1777948988 | 13.89° C | 55% | 1013.5 hPa | - | - | - | - |
| 1777948088 | 14.44° C | 53% | 1013.4 hPa | - | - | - | - |
| 1777947188 | 14.44° C | 53% | 1013.4 hPa | - | - | - | - |
| 1777946288 | 15° C | 52% | 1013.5 hPa | - | - | - | - |
| 1777945387 | 15° C | 52% | 1013.5 hPa | - | - | - | - |
| 1777944487 | 15.56° C | 52% | 1013.4 hPa | - | - | - | - |
| 1777943587 | 15.56° C | 51% | 1013.5 hPa | - | - | - | - |
| 1777942687 | 15.56° C | 51% | 1013.5 hPa | - | - | - | - |
| 1777941787 | 15.56° C | 51% | 1013.4 hPa | - | - | - | - |
| 1777940887 | 15.56° C | 51% | 1013.5 hPa | - | - | - | - |
| 1777939987 | 16.11° C | 51% | 1013.4 hPa | - | - | - | - |
| 1777939087 | 16.11° C | 51% | 1013.5 hPa | - | - | - | - |
| 1777938187 | 16.11° C | 51% | 1013.7 hPa | - | - | - | - |
| 1777937287 | 16.11° C | 51% | 1013.7 hPa | - | - | - | - |
| 1777936386 | 16.11° C | 51% | 1013.8 hPa | - | - | - | - |
| 1777935486 | 15.56° C | 53% | 1013.7 hPa | - | - | - | - |
* Rain since midnight (hover to see other rain measurements)
** Current wind speed in m/s (hover to see current wind gust speed)